sensor_id;sensor_type;location;lat;lon;timestamp;pressure;altitude;pressure_sealevel;temperature;humidity
8627;BME280;4351;51.422;6.794;2023-05-14T00:02:30;101739.19;;;13.51;100.00
8627;BME280;4351;51.422;6.794;2023-05-14T00:05:09;101734.00;;;13.46;100.00
8627;BME280;4351;51.422;6.794;2023-05-14T00:07:43;101738.81;;;13.41;100.00
8627;BME280;4351;51.422;6.794;2023-05-14T00:10:27;101735.41;;;13.37;100.00
8627;BME280;4351;51.422;6.794;2023-05-14T00:13:05;101729.22;;;13.35;100.00
8627;BME280;4351;51.422;6.794;2023-05-14T00:15:45;101732.28;;;13.29;100.00
8627;BME280;4351;51.422;6.794;2023-05-14T00:18:25;101723.78;;;13.19;100.00
8627;BME280;4351;51.422;6.794;2023-05-14T00:21:02;101728.50;;;13.15;100.00
8627;BME280;4351;51.422;6.794;2023-05-14T00:23:33;101734.06;;;13.12;100.00
8627;BME280;4351;51.422;6.794;2023-05-14T00:26:12;101741.59;;;13.07;100.00
8627;BME280;4351;51.422;6.794;2023-05-14T00:28:59;101736.69;;;12.97;100.00
8627;BME280;4351;51.422;6.794;2023-05-14T00:31:41;101734.66;;;13.01;100.00
8627;BME280;4351;51.422;6.794;2023-05-14T00:34:24;101731.91;;;13.03;100.00
8627;BME280;4351;51.422;6.794;2023-05-14T00:37:12;101733.03;;;12.98;100.00
8627;BME280;4351;51.422;6.794;2023-05-14T00:39:46;101721.81;;;12.88;100.00
8627;BME280;4351;51.422;6.794;2023-05-14T00:42:14;101727.94;;;12.92;100.00
8627;BME280;4351;51.422;6.794;2023-05-14T00:44:45;101731.47;;;12.94;100.00
8627;BME280;4351;51.422;6.794;2023-05-14T00:47:21;101729.53;;;12.96;100.00
8627;BME280;4351;51.422;6.794;2023-05-14T00:50:04;101724.13;;;12.96;100.00
8627;BME280;4351;51.422;6.794;2023-05-14T00:52:43;101722.34;;;12.95;100.00
8627;BME280;4351;51.422;6.794;2023-05-14T00:55:17;101728.91;;;12.91;100.00
8627;BME280;4351;51.422;6.794;2023-05-14T00:58:04;101732.03;;;12.83;100.00
8627;BME280;4351;51.422;6.794;2023-05-14T01:00:45;101732.28;;;12.79;100.00
8627;BME280;4351;51.422;6.794;2023-05-14T01:03:20;101735.16;;;12.75;100.00
8627;BME280;4351;51.422;6.794;2023-05-14T01:06:09;101725.09;;;12.61;100.00
8627;BME280;4351;51.422;6.794;2023-05-14T01:09:00;101731.59;;;12.57;100.00
8627;BME280;4351;51.422;6.794;2023-05-14T01:11:52;101746.00;;;12.58;100.00
8627;BME280;4351;51.422;6.794;2023-05-14T01:14:44;101748.41;;;12.46;100.00
8627;BME280;4351;51.422;6.794;2023-05-14T01:17:37;101750.16;;;12.47;100.00
8627;BME280;4351;51.422;6.794;2023-05-14T01:20:16;101754.00;;;12.43;100.00
8627;BME280;4351;51.422;6.794;2023-05-14T01:22:59;101780.72;;;12.32;100.00
8627;BME280;4351;51.422;6.794;2023-05-14T01:25:33;101782.63;;;12.29;100.00
8627;BME280;4351;51.422;6.794;2023-05-14T01:28:14;101794.66;;;12.24;100.00
8627;BME280;4351;51.422;6.794;2023-05-14T01:31:03;101802.47;;;12.30;100.00
8627;BME280;4351;51.422;6.794;2023-05-14T01:33:51;101806.84;;;12.33;100.00
8627;BME280;4351;51.422;6.794;2023-05-14T01:36:32;101817.94;;;12.26;100.00
8627;BME280;4351;51.422;6.794;2023-05-14T01:39:05;101818.50;;;12.15;100.00
8627;BME280;4351;51.422;6.794;2023-05-14T01:41:44;101823.88;;;11.98;100.00
8627;BME280;4351;51.422;6.794;2023-05-14T01:44:21;101832.19;;;11.93;100.00
8627;BME280;4351;51.422;6.794;2023-05-14T01:47:00;101846.81;;;11.89;100.00
8627;BME280;4351;51.422;6.794;2023-05-14T01:49:32;101846.66;;;11.92;100.00
8627;BME280;4351;51.422;6.794;2023-05-14T01:52:05;101846.66;;;11.92;100.00
8627;BME280;4351;51.422;6.794;2023-05-14T01:54:49;101862.75;;;11.95;100.00
8627;BME280;4351;51.422;6.794;2023-05-14T01:57:23;101854.78;;;11.92;100.00
8627;BME280;4351;51.422;6.794;2023-05-14T02:00:02;101862.56;;;11.98;100.00
8627;BME280;4351;51.422;6.794;2023-05-14T02:02:51;101865.66;;;11.90;100.00
8627;BME280;4351;51.422;6.794;2023-05-14T02:05:30;101866.69;;;11.88;100.00
8627;BME280;4351;51.422;6.794;2023-05-14T02:08:07;101873.28;;;11.82;100.00
8627;BME280;4351;51.422;6.794;2023-05-14T02:10:46;101876.50;;;11.71;100.00
8627;BME280;4351;51.422;6.794;2023-05-14T02:13:28;101876.78;;;11.65;100.00
8627;BME280;4351;51.422;6.794;2023-05-14T02:16:10;101890.81;;;11.73;100.00
8627;BME280;4351;51.422;6.794;2023-05-14T02:18:57;101895.56;;;11.68;100.00
8627;BME280;4351;51.422;6.794;2023-05-14T02:21:36;101908.13;;;11.69;100.00
8627;BME280;4351;51.422;6.794;2023-05-14T02:24:06;101918.78;;;11.72;100.00
8627;BME280;4351;51.422;6.794;2023-05-14T02:26:40;101946.78;;;11.71;100.00
8627;BME280;4351;51.422;6.794;2023-05-14T02:29:13;101952.59;;;11.61;100.00
8627;BME280;4351;51.422;6.794;2023-05-14T02:31:51;101949.38;;;11.53;100.00
8627;BME280;4351;51.422;6.794;2023-05-14T02:34:24;101934.91;;;11.54;100.00
8627;BME280;4351;51.422;6.794;2023-05-14T02:37:00;101928.69;;;11.52;100.00
8627;BME280;4351;51.422;6.794;2023-05-14T02:39:45;101909.66;;;11.55;100.00
8627;BME280;4351;51.422;6.794;2023-05-14T02:42:28;101889.31;;;11.46;100.00
8627;BME280;4351;51.422;6.794;2023-05-14T02:45:09;101879.19;;;11.52;100.00
8627;BME280;4351;51.422;6.794;2023-05-14T02:47:47;101857.78;;;11.47;100.00
8627;BME280;4351;51.422;6.794;2023-05-14T02:50:25;101817.16;;;11.48;100.00
8627;BME280;4351;51.422;6.794;2023-05-14T02:53:03;101791.91;;;11.49;100.00
8627;BME280;4351;51.422;6.794;2023-05-14T02:55:38;101799.78;;;11.54;100.00
8627;BME280;4351;51.422;6.794;2023-05-14T02:58:17;101799.06;;;11.50;100.00
8627;BME280;4351;51.422;6.794;2023-05-14T03:01:03;101816.16;;;11.51;100.00
8627;BME280;4351;51.422;6.794;2023-05-14T03:03:49;101797.66;;;11.61;100.00
8627;BME280;4351;51.422;6.794;2023-05-14T03:06:27;101795.84;;;11.61;100.00
8627;BME280;4351;51.422;6.794;2023-05-14T03:09:07;101789.50;;;11.63;100.00
8627;BME280;4351;51.422;6.794;2023-05-14T03:11:49;101801.03;;;11.66;100.00
8627;BME280;4351;51.422;6.794;2023-05-14T03:14:19;101789.53;;;11.61;100.00
8627;BME280;4351;51.422;6.794;2023-05-14T03:16:58;101772.91;;;11.70;100.00
8627;BME280;4351;51.422;6.794;2023-05-14T03:19:40;101753.09;;;11.70;100.00
8627;BME280;4351;51.422;6.794;2023-05-14T03:22:16;101743.06;;;11.72;100.00
8627;BME280;4351;51.422;6.794;2023-05-14T03:24:53;101726.00;;;11.71;100.00
8627;BME280;4351;51.422;6.794;2023-05-14T03:27:35;101717.91;;;11.71;100.00
8627;BME280;4351;51.422;6.794;2023-05-14T03:30:16;101695.44;;;11.69;100.00
8627;BME280;4351;51.422;6.794;2023-05-14T03:32:53;101673.09;;;11.66;100.00
8627;BME280;4351;51.422;6.794;2023-05-14T03:35:26;101645.28;;;11.64;100.00
8627;BME280;4351;51.422;6.794;2023-05-14T03:37:59;101600.38;;;11.61;100.00
8627;BME280;4351;51.422;6.794;2023-05-14T03:40:39;101588.72;;;11.60;100.00
8627;BME280;4351;51.422;6.794;2023-05-14T03:43:19;101590.66;;;11.57;100.00
8627;BME280;4351;51.422;6.794;2023-05-14T03:46:01;101592.66;;;11.53;100.00
8627;BME280;4351;51.422;6.794;2023-05-14T03:48:42;101586.47;;;11.51;100.00
8627;BME280;4351;51.422;6.794;2023-05-14T03:51:22;101589.88;;;11.55;100.00
8627;BME280;4351;51.422;6.794;2023-05-14T03:54:00;101580.66;;;11.59;100.00
8627;BME280;4351;51.422;6.794;2023-05-14T03:56:36;101572.47;;;11.43;100.00
8627;BME280;4351;51.422;6.794;2023-05-14T03:59:13;101565.78;;;11.50;100.00
8627;BME280;4351;51.422;6.794;2023-05-14T04:01:56;101565.97;;;11.47;100.00
8627;BME280;4351;51.422;6.794;2023-05-14T04:04:35;101567.69;;;11.48;100.00
8627;BME280;4351;51.422;6.794;2023-05-14T04:07:15;101560.38;;;11.50;100.00
8627;BME280;4351;51.422;6.794;2023-05-14T04:10:01;101563.25;;;11.47;100.00
8627;BME280;4351;51.422;6.794;2023-05-14T04:12:44;101556.41;;;11.57;100.00
8627;BME280;4351;51.422;6.794;2023-05-14T04:15:22;101554.84;;;11.53;100.00
8627;BME280;4351;51.422;6.794;2023-05-14T04:18:01;101557.63;;;11.52;100.00
8627;BME280;4351;51.422;6.794;2023-05-14T04:20:36;101563.09;;;11.50;100.00
8627;BME280;4351;51.422;6.794;2023-05-14T04:23:17;101562.38;;;11.46;100.00
8627;BME280;4351;51.422;6.794;2023-05-14T04:25:57;101564.19;;;11.46;100.00
8627;BME280;4351;51.422;6.794;2023-05-14T04:28:35;101563.41;;;11.44;100.00
8627;BME280;4351;51.422;6.794;2023-05-14T04:31:16;101575.56;;;11.35;100.00
8627;BME280;4351;51.422;6.794;2023-05-14T04:33:52;101586.44;;;11.33;100.00
8627;BME280;4351;51.422;6.794;2023-05-14T04:36:25;101572.47;;;11.25;100.00
8627;BME280;4351;51.422;6.794;2023-05-14T04:38:56;101578.56;;;11.29;100.00
8627;BME280;4351;51.422;6.794;2023-05-14T04:41:29;101581.34;;;11.27;100.00
8627;BME280;4351;51.422;6.794;2023-05-14T04:44:15;101581.94;;;11.34;100.00
8627;BME280;4351;51.422;6.794;2023-05-14T04:46:57;101590.16;;;11.31;100.00
8627;BME280;4351;51.422;6.794;2023-05-14T04:49:38;101591.72;;;11.17;100.00
8627;BME280;4351;51.422;6.794;2023-05-14T04:52:16;101599.25;;;11.30;100.00
8627;BME280;4351;51.422;6.794;2023-05-14T04:54:54;101600.81;;;11.16;100.00
8627;BME280;4351;51.422;6.794;2023-05-14T04:57:29;101614.00;;;11.22;100.00
8627;BME280;4351;51.422;6.794;2023-05-14T05:00:09;101618.69;;;11.19;100.00
8627;BME280;4351;51.422;6.794;2023-05-14T05:02:51;101623.34;;;11.15;100.00
8627;BME280;4351;51.422;6.794;2023-05-14T05:05:33;101631.13;;;11.21;100.00
8627;BME280;4351;51.422;6.794;2023-05-14T05:08:19;101658.59;;;11.31;100.00
8627;BME280;4351;51.422;6.794;2023-05-14T05:10:52;101652.16;;;11.14;100.00
8627;BME280;4351;51.422;6.794;2023-05-14T05:13:32;101654.22;;;11.29;100.00
8627;BME280;4351;51.422;6.794;2023-05-14T05:16:12;101660.78;;;11.23;100.00
8627;BME280;4351;51.422;6.794;2023-05-14T05:18:52;101672.53;;;11.22;100.00
8627;BME280;4351;51.422;6.794;2023-05-14T05:21:34;101685.97;;;11.23;100.00
8627;BME280;4351;51.422;6.794;2023-05-14T05:24:11;101691.00;;;11.31;100.00
8627;BME280;4351;51.422;6.794;2023-05-14T05:26:59;101684.06;;;11.25;100.00
8627;BME280;4351;51.422;6.794;2023-05-14T05:29:35;101697.00;;;11.38;100.00
8627;BME280;4351;51.422;6.794;2023-05-14T05:32:14;101701.38;;;11.41;100.00
8627;BME280;4351;51.422;6.794;2023-05-14T05:34:55;101709.16;;;11.47;100.00
8627;BME280;4351;51.422;6.794;2023-05-14T05:37:30;101717.84;;;11.54;100.00
8627;BME280;4351;51.422;6.794;2023-05-14T05:40:02;101741.78;;;11.61;100.00
8627;BME280;4351;51.422;6.794;2023-05-14T05:42:41;101752.47;;;11.65;100.00
8627;BME280;4351;51.422;6.794;2023-05-14T05:45:19;101760.41;;;11.68;100.00
8627;BME280;4351;51.422;6.794;2023-05-14T05:48:07;101779.09;;;11.72;100.00
8627;BME280;4351;51.422;6.794;2023-05-14T05:50:46;101794.13;;;11.78;100.00
8627;BME280;4351;51.422;6.794;2023-05-14T05:53:30;101808.09;;;11.88;100.00
8627;BME280;4351;51.422;6.794;2023-05-14T05:56:08;101823.91;;;11.96;100.00
8627;BME280;4351;51.422;6.794;2023-05-14T05:58:43;101835.25;;;12.04;100.00
8627;BME280;4351;51.422;6.794;2023-05-14T06:01:18;101827.66;;;12.13;100.00
8627;BME280;4351;51.422;6.794;2023-05-14T06:03:56;101821.63;;;12.25;100.00
8627;BME280;4351;51.422;6.794;2023-05-14T06:06:33;101810.13;;;12.39;100.00
8627;BME280;4351;51.422;6.794;2023-05-14T06:09:16;101784.31;;;12.50;100.00
8627;BME280;4351;51.422;6.794;2023-05-14T06:11:58;101774.50;;;12.65;100.00
8627;BME280;4351;51.422;6.794;2023-05-14T06:14:36;101740.81;;;12.71;100.00
8627;BME280;4351;51.422;6.794;2023-05-14T06:17:10;101710.44;;;12.82;100.00
8627;BME280;4351;51.422;6.794;2023-05-14T06:19:41;101660.41;;;12.89;100.00
8627;BME280;4351;51.422;6.794;2023-05-14T06:22:26;101610.19;;;12.99;100.00
8627;BME280;4351;51.422;6.794;2023-05-14T06:25:11;101564.56;;;13.08;100.00
8627;BME280;4351;51.422;6.794;2023-05-14T06:27:50;101515.25;;;13.17;100.00
8627;BME280;4351;51.422;6.794;2023-05-14T06:30:34;101468.94;;;13.22;100.00
8627;BME280;4351;51.422;6.794;2023-05-14T06:33:08;101453.34;;;13.26;100.00
8627;BME280;4351;51.422;6.794;2023-05-14T06:35:52;101436.03;;;13.28;100.00
8627;BME280;4351;51.422;6.794;2023-05-14T06:38:32;101442.56;;;13.40;100.00
8627;BME280;4351;51.422;6.794;2023-05-14T06:41:16;101455.53;;;13.50;100.00
8627;BME280;4351;51.422;6.794;2023-05-14T06:43:59;101436.97;;;13.58;100.00
8627;BME280;4351;51.422;6.794;2023-05-14T06:46:37;101450.56;;;13.73;100.00
8627;BME280;4351;51.422;6.794;2023-05-14T06:49:14;101453.53;;;13.83;100.00
8627;BME280;4351;51.422;6.794;2023-05-14T06:51:54;101447.81;;;14.02;100.00
8627;BME280;4351;51.422;6.794;2023-05-14T06:54:38;101441.19;;;14.21;100.00
8627;BME280;4351;51.422;6.794;2023-05-14T06:57:12;101411.06;;;14.53;100.00
8627;BME280;4351;51.422;6.794;2023-05-14T06:59:57;101376.88;;;14.64;100.00
8627;BME280;4351;51.422;6.794;2023-05-14T07:02:38;101352.56;;;14.75;100.00
8627;BME280;4351;51.422;6.794;2023-05-14T07:05:17;101316.94;;;14.67;100.00
8627;BME280;4351;51.422;6.794;2023-05-14T07:08:01;101293.72;;;14.76;100.00
8627;BME280;4351;51.422;6.794;2023-05-14T07:10:41;101305.84;;;14.83;100.00
8627;BME280;4351;51.422;6.794;2023-05-14T07:13:21;101312.00;;;14.87;100.00
8627;BME280;4351;51.422;6.794;2023-05-14T07:16:03;101326.56;;;14.99;100.00
8627;BME280;4351;51.422;6.794;2023-05-14T07:18:44;101340.13;;;15.12;100.00
8627;BME280;4351;51.422;6.794;2023-05-14T07:21:17;101334.06;;;15.21;100.00
8627;BME280;4351;51.422;6.794;2023-05-14T07:23:48;101338.41;;;15.37;100.00
8627;BME280;4351;51.422;6.794;2023-05-14T07:26:25;101359.25;;;15.49;100.00
8627;BME280;4351;51.422;6.794;2023-05-14T07:29:06;101367.47;;;15.87;100.00
8627;BME280;4351;51.422;6.794;2023-05-14T07:31:41;101386.75;;;15.84;100.00
8627;BME280;4351;51.422;6.794;2023-05-14T07:34:20;101387.25;;;15.89;100.00
8627;BME280;4351;51.422;6.794;2023-05-14T07:36:59;101391.78;;;16.02;100.00
8627;BME280;4351;51.422;6.794;2023-05-14T07:39:33;101396.59;;;15.98;100.00
8627;BME280;4351;51.422;6.794;2023-05-14T07:42:15;101400.31;;;15.97;100.00
8627;BME280;4351;51.422;6.794;2023-05-14T07:45:14;101408.34;;;16.12;100.00
8627;BME280;4351;51.422;6.794;2023-05-14T07:47:58;101420.25;;;16.35;100.00
8627;BME280;4351;51.422;6.794;2023-05-14T07:50:37;101424.47;;;16.39;100.00
8627;BME280;4351;51.422;6.794;2023-05-14T07:53:14;101417.34;;;16.50;100.00
8627;BME280;4351;51.422;6.794;2023-05-14T07:55:57;101409.72;;;16.55;100.00
8627;BME280;4351;51.422;6.794;2023-05-14T07:58:38;101403.03;;;16.59;100.00
8627;BME280;4351;51.422;6.794;2023-05-14T08:01:22;101430.97;;;16.74;100.00
8627;BME280;4351;51.422;6.794;2023-05-14T08:04:02;101419.38;;;16.84;100.00
8627;BME280;4351;51.422;6.794;2023-05-14T08:06:37;101424.81;;;16.84;100.00
8627;BME280;4351;51.422;6.794;2023-05-14T08:09:12;101434.75;;;16.85;100.00
8627;BME280;4351;51.422;6.794;2023-05-14T08:11:52;101443.78;;;17.21;100.00
8627;BME280;4351;51.422;6.794;2023-05-14T08:14:29;101445.41;;;17.24;100.00
8627;BME280;4351;51.422;6.794;2023-05-14T08:17:12;101444.69;;;17.45;100.00
8627;BME280;4351;51.422;6.794;2023-05-14T08:19:51;101452.91;;;17.56;100.00
8627;BME280;4351;51.422;6.794;2023-05-14T08:22:34;101457.00;;;17.62;100.00
8627;BME280;4351;51.422;6.794;2023-05-14T08:25:08;101465.19;;;17.74;100.00
8627;BME280;4351;51.422;6.794;2023-05-14T08:27:36;101482.94;;;18.37;100.00
8627;BME280;4351;51.422;6.794;2023-05-14T08:30:07;101487.41;;;18.03;100.00
8627;BME280;4351;51.422;6.794;2023-05-14T08:32:48;101505.75;;;18.13;100.00
8627;BME280;4351;51.422;6.794;2023-05-14T08:35:27;101509.13;;;18.40;100.00
8627;BME280;4351;51.422;6.794;2023-05-14T08:38:01;101511.25;;;18.36;100.00
8627;BME280;4351;51.422;6.794;2023-05-14T08:40:44;101516.34;;;18.29;100.00
8627;BME280;4351;51.422;6.794;2023-05-14T08:43:29;101523.06;;;18.25;100.00
8627;BME280;4351;51.422;6.794;2023-05-14T08:46:12;101529.88;;;18.42;100.00
8627;BME280;4351;51.422;6.794;2023-05-14T08:48:56;101538.53;;;18.47;100.00
8627;BME280;4351;51.422;6.794;2023-05-14T08:51:34;101534.97;;;18.35;100.00
8627;BME280;4351;51.422;6.794;2023-05-14T08:54:03;101544.63;;;18.51;100.00
8627;BME280;4351;51.422;6.794;2023-05-14T08:56:33;101549.34;;;18.49;100.00
8627;BME280;4351;51.422;6.794;2023-05-14T08:59:16;101553.44;;;18.43;100.00
8627;BME280;4351;51.422;6.794;2023-05-14T09:01:55;101560.88;;;18.64;100.00
8627;BME280;4351;51.422;6.794;2023-05-14T09:04:40;101564.34;;;18.66;100.00
8627;BME280;4351;51.422;6.794;2023-05-14T09:07:21;101558.88;;;18.66;100.00
8627;BME280;4351;51.422;6.794;2023-05-14T09:10:07;101564.34;;;18.66;100.00
8627;BME280;4351;51.422;6.794;2023-05-14T09:12:45;101562.38;;;18.68;100.00
8627;BME280;4351;51.422;6.794;2023-05-14T09:15:26;101570.28;;;18.71;100.00
8627;BME280;4351;51.422;6.794;2023-05-14T09:18:04;101572.56;;;18.66;100.00
8627;BME280;4351;51.422;6.794;2023-05-14T09:20:45;101573.00;;;18.94;100.00
8627;BME280;4351;51.422;6.794;2023-05-14T09:23:30;101574.38;;;18.89;100.00
8627;BME280;4351;51.422;6.794;2023-05-14T09:26:03;101582.88;;;19.07;100.00
8627;BME280;4351;51.422;6.794;2023-05-14T09:28:32;101585.63;;;19.07;100.00
8627;BME280;4351;51.422;6.794;2023-05-14T09:31:01;101584.16;;;18.91;100.00
8627;BME280;4351;51.422;6.794;2023-05-14T09:33:29;101588.09;;;19.10;100.00
8627;BME280;4351;51.422;6.794;2023-05-14T09:35:59;101590.22;;;19.18;100.00
8627;BME280;4351;51.422;6.794;2023-05-14T09:38:27;101605.84;;;19.27;100.00
8627;BME280;4351;51.422;6.794;2023-05-14T09:40:56;101604.22;;;19.13;100.00
8627;BME280;4351;51.422;6.794;2023-05-14T09:43:24;101596.31;;;19.22;100.00
8627;BME280;4351;51.422;6.794;2023-05-14T09:45:52;101597.78;;;19.26;100.00
8627;BME280;4351;51.422;6.794;2023-05-14T09:48:20;101600.41;;;19.49;100.00
8627;BME280;4351;51.422;6.794;2023-05-14T09:50:48;101598.56;;;19.49;100.00
8627;BME280;4351;51.422;6.794;2023-05-14T09:53:19;101608.97;;;19.23;100.00
8627;BME280;4351;51.422;6.794;2023-05-14T09:55:46;101598.38;;;19.29;100.00
8627;BME280;4351;51.422;6.794;2023-05-14T09:58:14;101599.16;;;19.20;100.00
8627;BME280;4351;51.422;6.794;2023-05-14T10:00:44;101593.22;;;19.91;100.00
8627;BME280;4351;51.422;6.794;2023-05-14T10:03:14;101595.84;;;19.38;100.00
8627;BME280;4351;51.422;6.794;2023-05-14T10:05:47;101592.34;;;19.47;100.00
8627;BME280;4351;51.422;6.794;2023-05-14T10:08:20;101579.53;;;19.48;100.00
8627;BME280;4351;51.422;6.794;2023-05-14T10:10:52;101583.41;;;19.67;100.00
8627;BME280;4351;51.422;6.794;2023-05-14T10:13:23;101588.81;;;19.78;100.00
8627;BME280;4351;51.422;6.794;2023-05-14T10:15:56;101575.78;;;19.49;100.00
8627;BME280;4351;51.422;6.794;2023-05-14T10:18:30;101583.00;;;19.50;100.00
8627;BME280;4351;51.422;6.794;2023-05-14T10:21:03;101580.13;;;19.73;100.00
8627;BME280;4351;51.422;6.794;2023-05-14T10:23:33;101567.78;;;19.57;100.00
8627;BME280;4351;51.422;6.794;2023-05-14T10:26:03;101577.16;;;19.55;100.00
8627;BME280;4351;51.422;6.794;2023-05-14T10:28:33;101573.88;;;19.82;100.00
8627;BME280;4351;51.422;6.794;2023-05-14T10:31:02;101573.28;;;19.79;100.00
8627;BME280;4351;51.422;6.794;2023-05-14T10:33:45;101569.50;;;20.01;100.00
8627;BME280;4351;51.422;6.794;2023-05-14T10:36:15;101562.44;;;19.98;100.00
8627;BME280;4351;51.422;6.794;2023-05-14T10:38:45;101559.22;;;20.15;100.00
8627;BME280;4351;51.422;6.794;2023-05-14T10:41:14;101558.13;;;20.27;100.00
8627;BME280;4351;51.422;6.794;2023-05-14T10:43:43;101558.97;;;20.18;100.00
8627;BME280;4351;51.422;6.794;2023-05-14T10:46:12;101554.22;;;20.20;100.00
8627;BME280;4351;51.422;6.794;2023-05-14T10:48:41;101561.59;;;20.29;100.00
8627;BME280;4351;51.422;6.794;2023-05-14T10:51:10;101549.03;;;20.68;100.00
8627;BME280;4351;51.422;6.794;2023-05-14T10:53:39;101540.44;;;20.31;100.00
8627;BME280;4351;51.422;6.794;2023-05-14T10:56:10;101541.09;;;20.24;100.00
8627;BME280;4351;51.422;6.794;2023-05-14T10:58:39;101541.59;;;20.39;100.00
8627;BME280;4351;51.422;6.794;2023-05-14T11:01:10;101545.03;;;20.31;100.00
8627;BME280;4351;51.422;6.794;2023-05-14T11:03:39;101556.75;;;19.90;100.00
8627;BME280;4351;51.422;6.794;2023-05-14T11:06:08;101542.66;;;19.95;100.00
8627;BME280;4351;51.422;6.794;2023-05-14T11:08:37;101549.59;;;19.99;100.00
8627;BME280;4351;51.422;6.794;2023-05-14T11:11:07;101542.78;;;20.15;100.00
8627;BME280;4351;51.422;6.794;2023-05-14T11:13:36;101529.28;;;20.23;100.00
8627;BME280;4351;51.422;6.794;2023-05-14T11:16:05;101523.44;;;20.38;100.00
8627;BME280;4351;51.422;6.794;2023-05-14T11:18:52;101516.84;;;20.60;100.00
8627;BME280;4351;51.422;6.794;2023-05-14T11:21:20;101517.53;;;20.42;100.00
8627;BME280;4351;51.422;6.794;2023-05-14T11:23:48;101512.75;;;20.35;100.00
8627;BME280;4351;51.422;6.794;2023-05-14T11:26:16;101507.03;;;20.16;100.00
8627;BME280;4351;51.422;6.794;2023-05-14T11:28:48;101518.88;;;20.17;100.00
8627;BME280;4351;51.422;6.794;2023-05-14T11:31:16;101514.97;;;20.09;100.00
8627;BME280;4351;51.422;6.794;2023-05-14T11:33:44;101494.28;;;20.05;100.00
8627;BME280;4351;51.422;6.794;2023-05-14T11:36:12;101486.56;;;20.10;100.00
8627;BME280;4351;51.422;6.794;2023-05-14T11:38:45;101498.13;;;20.75;100.00
8627;BME280;4351;51.422;6.794;2023-05-14T11:41:14;101490.75;;;20.76;100.00
8627;BME280;4351;51.422;6.794;2023-05-14T11:43:42;101480.09;;;20.83;100.00
8627;BME280;4351;51.422;6.794;2023-05-14T11:46:16;101475.50;;;21.13;100.00
8627;BME280;4351;51.422;6.794;2023-05-14T11:48:45;101483.25;;;20.68;100.00
8627;BME280;4351;51.422;6.794;2023-05-14T11:51:12;101486.06;;;20.37;100.00
8627;BME280;4351;51.422;6.794;2023-05-14T11:53:40;101482.91;;;20.51;100.00
8627;BME280;4351;51.422;6.794;2023-05-14T11:56:08;101490.09;;;20.32;100.00
8627;BME280;4351;51.422;6.794;2023-05-14T11:58:36;101484.16;;;20.27;100.00
8627;BME280;4351;51.422;6.794;2023-05-14T12:01:04;101481.47;;;20.47;100.00
8627;BME280;4351;51.422;6.794;2023-05-14T12:03:34;101496.78;;;20.50;100.00
8627;BME280;4351;51.422;6.794;2023-05-14T12:06:05;101482.94;;;20.71;100.00
8627;BME280;4351;51.422;6.794;2023-05-14T12:08:33;101484.97;;;20.59;100.00
8627;BME280;4351;51.422;6.794;2023-05-14T12:11:01;101479.50;;;20.89;100.00
8627;BME280;4351;51.422;6.794;2023-05-14T12:13:30;101477.63;;;20.89;100.00
8627;BME280;4351;51.422;6.794;2023-05-14T12:15:59;101488.72;;;20.68;100.00
8627;BME280;4351;51.422;6.794;2023-05-14T12:18:29;101485.91;;;20.99;100.00
8627;BME280;4351;51.422;6.794;2023-05-14T12:21:02;101464.22;;;20.76;100.00
8627;BME280;4351;51.422;6.794;2023-05-14T12:23:31;101459.59;;;21.36;100.00
8627;BME280;4351;51.422;6.794;2023-05-14T12:26:03;101458.00;;;20.94;100.00
8627;BME280;4351;51.422;6.794;2023-05-14T12:28:32;101462.34;;;21.07;100.00
8627;BME280;4351;51.422;6.794;2023-05-14T12:31:03;101454.53;;;21.22;100.00
8627;BME280;4351;51.422;6.794;2023-05-14T12:33:31;101460.09;;;21.60;100.00
8627;BME280;4351;51.422;6.794;2023-05-14T12:35:59;101448.34;;;21.30;100.00
8627;BME280;4351;51.422;6.794;2023-05-14T12:38:48;101451.16;;;21.58;100.00
8627;BME280;4351;51.422;6.794;2023-05-14T12:41:16;101456.03;;;21.64;100.00
8627;BME280;4351;51.422;6.794;2023-05-14T12:43:46;101452.09;;;21.29;100.00
8627;BME280;4351;51.422;6.794;2023-05-14T12:46:14;101463.06;;;21.09;100.00
8627;BME280;4351;51.422;6.794;2023-05-14T12:48:42;101466.13;;;21.25;100.00
8627;BME280;4351;51.422;6.794;2023-05-14T12:51:10;101465.81;;;21.09;100.00
8627;BME280;4351;51.422;6.794;2023-05-14T12:53:38;101460.19;;;21.00;100.00
8627;BME280;4351;51.422;6.794;2023-05-14T12:56:07;101467.97;;;20.65;100.00
8627;BME280;4351;51.422;6.794;2023-05-14T12:58:35;101448.91;;;20.64;100.00
8627;BME280;4351;51.422;6.794;2023-05-14T13:01:04;101440.69;;;20.74;100.00
8627;BME280;4351;51.422;6.794;2023-05-14T13:03:32;101447.19;;;20.53;100.00
8627;BME280;4351;51.422;6.794;2023-05-14T13:06:00;101444.28;;;20.44;100.00
8627;BME280;4351;51.422;6.794;2023-05-14T13:08:28;101444.41;;;20.33;100.00
8627;BME280;4351;51.422;6.794;2023-05-14T13:10:56;101441.38;;;20.36;100.00
8627;BME280;4351;51.422;6.794;2023-05-14T13:13:25;101443.13;;;20.67;100.00
8627;BME280;4351;51.422;6.794;2023-05-14T13:15:53;101426.97;;;20.74;100.00
8627;BME280;4351;51.422;6.794;2023-05-14T13:18:21;101437.81;;;20.65;100.00
8627;BME280;4351;51.422;6.794;2023-05-14T13:20:49;101437.53;;;20.78;100.00
8627;BME280;4351;51.422;6.794;2023-05-14T13:23:17;101426.28;;;21.21;100.00
8627;BME280;4351;51.422;6.794;2023-05-14T13:25:45;101423.94;;;21.27;100.00
8627;BME280;4351;51.422;6.794;2023-05-14T13:28:15;101413.13;;;21.25;100.00
8627;BME280;4351;51.422;6.794;2023-05-14T13:31:03;101427.19;;;21.50;100.00
8627;BME280;4351;51.422;6.794;2023-05-14T13:33:32;101418.16;;;21.30;100.00
8627;BME280;4351;51.422;6.794;2023-05-14T13:36:01;101418.00;;;21.31;100.00
8627;BME280;4351;51.422;6.794;2023-05-14T13:38:29;101418.94;;;21.50;100.00
8627;BME280;4351;51.422;6.794;2023-05-14T13:40:57;101420.00;;;21.39;100.00
8627;BME280;4351;51.422;6.794;2023-05-14T13:43:28;101417.13;;;21.41;100.00
8627;BME280;4351;51.422;6.794;2023-05-14T13:45:58;101426.56;;;21.18;100.00
8627;BME280;4351;51.422;6.794;2023-05-14T13:48:26;101420.75;;;21.41;100.00